createdAt,value
2023-01-01T00:01:48.558Z,158.18
2023-01-01T00:04:16.201Z,168.23
2023-01-01T00:06:42.836Z,183.75
2023-01-01T00:09:28.524Z,171.85
2023-01-01T00:11:54.842Z,156.18
2023-01-01T00:14:21.279Z,134.48
2023-01-01T00:16:47.942Z,125.45
2023-01-01T00:19:14.350Z,140.68
2023-01-01T00:21:40.780Z,129.27
2023-01-01T00:24:07.415Z,119.45
2023-01-01T00:26:35.599Z,125.00
2023-01-01T00:29:02.971Z,120.40
2023-01-01T00:31:29.930Z,96.07
2023-01-01T00:33:56.937Z,92.03
2023-01-01T00:36:25.208Z,87.05
2023-01-01T00:38:51.767Z,78.70
2023-01-01T00:41:18.873Z,72.65
2023-01-01T00:43:45.368Z,73.38
2023-01-01T00:46:12.827Z,62.95
2023-01-01T00:48:39.474Z,57.47
2023-01-01T00:51:06.494Z,54.17
2023-01-01T00:53:33.330Z,50.70
2023-01-01T00:55:59.792Z,49.15
2023-01-01T00:58:26.218Z,43.20
2023-01-01T01:00:56.607Z,44.33
2023-01-01T01:03:29.090Z,41.58
2023-01-01T01:06:08.999Z,40.10
2023-01-01T01:08:37.163Z,30.85
2023-01-01T01:11:17.776Z,31.88
2023-01-01T01:13:46.156Z,27.85
2023-01-01T01:16:18.805Z,30.83
2023-01-01T01:18:45.983Z,35.42
2023-01-01T01:21:17.177Z,34.63
2023-01-01T01:23:43.541Z,28.67
2023-01-01T01:26:20.250Z,25.05
2023-01-01T01:28:49.676Z,26.02
2023-01-01T01:31:18.121Z,24.17
2023-01-01T01:33:45.476Z,23.63
2023-01-01T01:36:12.735Z,27.30
2023-01-01T01:38:39.344Z,25.98
2023-01-01T01:41:06.329Z,26.55
2023-01-01T01:43:32.583Z,27.77
2023-01-01T01:46:03.549Z,21.13
2023-01-01T01:48:34.403Z,21.35
2023-01-01T01:51:00.887Z,21.83
2023-01-01T01:53:30.633Z,30.45
2023-01-01T01:56:01.446Z,28.67
2023-01-01T01:58:30.386Z,30.52
2023-01-01T02:00:57.386Z,23.48
2023-01-01T02:03:29.862Z,28.83
2023-01-01T02:05:56.596Z,20.83
2023-01-01T02:08:23.476Z,25.98
2023-01-01T02:10:49.843Z,24.65
2023-01-01T02:13:16.829Z,27.75
2023-01-01T02:15:57.348Z,29.90
2023-01-01T02:18:36.446Z,30.10
2023-01-01T02:21:12.932Z,31.23
2023-01-01T02:24:00.801Z,32.45
2023-01-01T02:26:49.915Z,29.77
2023-01-01T02:29:32.505Z,35.90
2023-01-01T02:32:09.192Z,33.42
2023-01-01T02:34:40.654Z,31.55
2023-01-01T02:37:10.198Z,30.25
2023-01-01T02:39:42.008Z,27.95
2023-01-01T02:42:09.880Z,27.65
2023-01-01T02:44:41.537Z,27.30
2023-01-01T02:47:10.883Z,28.58
2023-01-01T02:49:44.991Z,27.13
2023-01-01T02:52:34.046Z,24.10
2023-01-01T02:55:07.361Z,21.95
2023-01-01T02:57:41.320Z,25.95
2023-01-01T03:00:40.425Z,24.40
2023-01-01T03:03:12.709Z,21.88
2023-01-01T03:06:11.269Z,27.92
2023-01-01T03:09:08.499Z,22.55
2023-01-01T03:11:53.762Z,24.63
2023-01-01T03:14:47.745Z,19.67
2023-01-01T03:17:31.474Z,20.25
2023-01-01T03:20:01.443Z,19.75
2023-01-01T03:25:19.515Z,19.52
2023-01-01T03:27:53.020Z,17.80
2023-01-01T03:30:21.238Z,17.77
2023-01-01T03:33:07.775Z,17.15
2023-01-01T03:35:42.311Z,17.25
2023-01-01T03:38:20.149Z,16.23
2023-01-01T03:40:49.774Z,16.00
2023-01-01T03:43:39.018Z,16.42
2023-01-01T03:46:08.525Z,16.50
2023-01-01T03:49:02.111Z,16.52
2023-01-01T03:51:50.585Z,17.65
2023-01-01T03:54:29.369Z,15.30
2023-01-01T03:57:28.975Z,19.40
2023-01-01T04:00:04.313Z,17.45
2023-01-01T04:02:45.189Z,17.08
2023-01-01T04:05:12.577Z,15.52
2023-01-01T04:07:39.336Z,16.45
2023-01-01T04:10:17.263Z,16.58
2023-01-01T04:12:52.069Z,16.35
2023-01-01T04:15:20.705Z,15.30
2023-01-01T04:17:47.473Z,17.65
2023-01-01T04:20:14.166Z,15.57
2023-01-01T04:22:40.520Z,16.80
2023-01-01T04:25:07.796Z,15.48
2023-01-01T04:27:34.825Z,14.55
2023-01-01T04:30:01.399Z,14.15
2023-01-01T04:32:29.702Z,13.80
2023-01-01T04:34:56.059Z,14.98
2023-01-01T04:37:22.606Z,14.00
2023-01-01T04:39:48.900Z,12.40
2023-01-01T04:42:15.319Z,13.45
2023-01-01T04:44:41.632Z,11.50
2023-01-01T04:47:08.701Z,12.15
2023-01-01T04:49:35.037Z,12.00
2023-01-01T04:52:01.378Z,11.70
2023-01-01T04:54:27.679Z,10.85
2023-01-01T04:56:54.321Z,11.60
2023-01-01T04:59:20.778Z,11.32
2023-01-01T05:01:47.288Z,11.43
2023-01-01T05:04:15.607Z,10.73
2023-01-01T05:06:42.423Z,10.55
2023-01-01T05:09:10.286Z,10.73
2023-01-01T05:11:36.872Z,10.60
2023-01-01T05:14:03.899Z,10.25
2023-01-01T05:16:33.358Z,10.57
2023-01-01T05:19:00.050Z,10.20
2023-01-01T05:21:29.256Z,10.13
2023-01-01T05:23:57.266Z,9.93
2023-01-01T05:26:25.740Z,8.90
2023-01-01T05:28:52.078Z,10.38
2023-01-01T05:31:20.374Z,9.23
2023-01-01T05:33:47.544Z,9.40
2023-01-01T05:36:20.391Z,8.73
2023-01-01T05:38:47.071Z,8.65
2023-01-01T05:41:15.568Z,8.65
2023-01-01T05:43:42.201Z,8.38
2023-01-01T05:46:12.153Z,8.63
2023-01-01T05:48:38.953Z,8.13
2023-01-01T05:51:06.272Z,8.30
2023-01-01T05:53:33.123Z,7.85
2023-01-01T05:55:59.655Z,7.75
2023-01-01T05:58:27.843Z,7.53
2023-01-01T06:00:54.340Z,7.95
2023-01-01T06:03:21.147Z,7.47
2023-01-01T06:05:47.459Z,7.43
2023-01-01T06:08:14.389Z,6.80
2023-01-01T06:10:40.973Z,7.60
2023-01-01T06:13:13.164Z,8.18
2023-01-01T06:15:39.970Z,7.45
2023-01-01T06:18:06.327Z,7.15
2023-01-01T06:20:32.621Z,6.82
2023-01-01T06:22:59.000Z,6.53
2023-01-01T06:25:25.324Z,7.55
2023-01-01T06:27:51.654Z,7.65
2023-01-01T06:30:20.641Z,6.50
2023-01-01T06:32:46.939Z,6.30
2023-01-01T06:35:13.295Z,5.88
2023-01-01T06:37:39.578Z,5.65
2023-01-01T06:40:06.730Z,5.18
2023-01-01T06:42:34.177Z,5.15
2023-01-01T06:45:00.790Z,4.97
2023-01-01T06:47:27.161Z,5.07
2023-01-01T06:49:53.498Z,5.25
2023-01-01T06:52:19.825Z,4.68
2023-01-01T06:54:47.970Z,5.03
2023-01-01T06:57:14.346Z,4.63
2023-01-01T06:59:40.647Z,4.68
2023-01-01T07:02:11.159Z,4.82
2023-01-01T07:04:38.271Z,5.15
2023-01-01T07:07:05.584Z,5.47
2023-01-01T07:09:31.976Z,5.15
2023-01-01T07:11:58.609Z,4.90
2023-01-01T07:14:24.925Z,5.10
2023-01-01T07:16:51.322Z,6.07
2023-01-01T07:19:18.057Z,5.47
2023-01-01T07:21:51.526Z,5.22
2023-01-01T07:24:17.976Z,5.32
2023-01-01T07:26:47.344Z,5.53
2023-01-01T07:29:13.710Z,5.80
2023-01-01T07:32:16.051Z,5.32
2023-01-01T07:34:47.392Z,5.65
2023-01-01T07:37:23.082Z,5.50
2023-01-01T07:39:49.433Z,4.50
2023-01-01T07:42:15.728Z,5.22
2023-01-01T07:44:42.004Z,5.60
2023-01-01T07:47:21.663Z,4.93
2023-01-01T07:49:48.104Z,5.18
2023-01-01T07:52:15.326Z,4.70
2023-01-01T07:54:44.038Z,5.05
2023-01-01T07:57:11.196Z,4.82
2023-01-01T07:59:37.546Z,4.88
2023-01-01T08:02:04.306Z,5.70
2023-01-01T08:04:31.782Z,5.70
2023-01-01T08:06:58.116Z,5.18
2023-01-01T08:09:27.197Z,5.30
2023-01-01T08:11:55.996Z,5.53
2023-01-01T08:14:22.304Z,4.35
2023-01-01T08:16:48.635Z,4.50
2023-01-01T08:19:14.899Z,4.30
2023-01-01T08:21:41.294Z,4.40
2023-01-01T08:24:07.618Z,4.95
2023-01-01T08:26:35.847Z,6.45
2023-01-01T08:29:04.787Z,6.10
2023-01-01T08:31:31.178Z,5.72
2023-01-01T08:33:57.511Z,4.78
2023-01-01T08:36:24.250Z,5.10
2023-01-01T08:38:50.700Z,4.70
2023-01-01T08:41:17.307Z,5.10
2023-01-01T08:43:43.654Z,4.32
2023-01-01T08:46:10.100Z,4.60
2023-01-01T08:48:36.425Z,4.50
2023-01-01T08:51:03.044Z,3.85
2023-01-01T08:53:30.880Z,5.13
2023-01-01T08:56:05.889Z,4.20
2023-01-01T08:58:33.457Z,3.88
2023-01-01T09:01:00.715Z,4.20
2023-01-01T09:03:27.658Z,4.25
2023-01-01T09:05:54.724Z,4.30
2023-01-01T09:08:21.972Z,4.00
2023-01-01T09:10:48.789Z,3.65
2023-01-01T09:13:17.923Z,3.38
2023-01-01T09:18:15.453Z,2.92
2023-01-01T09:20:41.876Z,2.30
2023-01-01T09:23:08.573Z,2.55
2023-01-01T09:25:35.450Z,2.40
2023-01-01T09:28:07.355Z,2.83
2023-01-01T09:30:34.994Z,2.95
2023-01-01T09:33:02.006Z,2.47
2023-01-01T09:35:29.505Z,2.60
2023-01-01T09:37:58.927Z,2.78
2023-01-01T09:41:04.746Z,2.83
2023-01-01T09:44:04.514Z,3.03
2023-01-01T09:46:32.324Z,2.53
2023-01-01T09:49:03.341Z,2.42
2023-01-01T09:51:39.881Z,2.95
2023-01-01T09:54:22.729Z,2.67
2023-01-01T09:56:57.009Z,2.28
2023-01-01T09:59:23.655Z,2.85
2023-01-01T10:02:18.176Z,2.35
2023-01-01T10:05:03.059Z,3.00
2023-01-01T10:07:38.309Z,2.50
2023-01-01T10:10:31.132Z,2.20
2023-01-01T10:13:11.276Z,2.47
2023-01-01T10:15:52.457Z,2.22
2023-01-01T10:18:23.618Z,2.58
2023-01-01T10:21:02.612Z,2.53
2023-01-01T10:23:35.346Z,2.45
2023-01-01T10:26:16.160Z,2.53
2023-01-01T10:28:57.292Z,2.45
2023-01-01T10:31:32.456Z,2.78
2023-01-01T10:34:01.037Z,2.58
2023-01-01T10:36:27.589Z,2.40
2023-01-01T10:38:53.903Z,2.58
2023-01-01T10:41:20.438Z,2.50
2023-01-01T10:43:48.774Z,2.35
2023-01-01T10:46:29.553Z,2.67
2023-01-01T10:49:10.113Z,2.28
2023-01-01T10:51:50.888Z,2.30
2023-01-01T10:54:35.764Z,3.15
2023-01-01T10:57:16.818Z,2.50
2023-01-01T10:59:53.789Z,2.90
2023-01-01T11:02:26.537Z,3.10
2023-01-01T11:05:19.213Z,2.50
2023-01-01T11:07:48.193Z,2.75
2023-01-01T11:10:23.952Z,3.10
2023-01-01T11:13:07.047Z,2.25
2023-01-01T11:15:33.467Z,2.83
2023-01-01T11:18:12.415Z,2.47
2023-01-01T11:20:39.387Z,2.90
2023-01-01T11:23:39.488Z,2.63
2023-01-01T11:26:14.642Z,2.88
2023-01-01T11:28:41.487Z,2.67
2023-01-01T11:31:15.682Z,2.72
2023-01-01T11:33:52.676Z,2.92
2023-01-01T11:36:32.483Z,2.83
2023-01-01T11:39:20.075Z,2.85
2023-01-01T11:41:52.053Z,2.55
2023-01-01T11:44:43.808Z,2.50
2023-01-01T11:47:35.790Z,2.25
2023-01-01T11:50:08.872Z,2.78
2023-01-01T11:52:39.014Z,3.33
2023-01-01T11:55:27.297Z,2.83
2023-01-01T11:58:04.230Z,2.35
2023-01-01T12:00:35.829Z,2.83
2023-01-01T12:03:20.674Z,2.65
2023-01-01T12:05:52.784Z,3.13
2023-01-01T12:08:37.122Z,3.08
2023-01-01T12:11:17.451Z,2.33
2023-01-01T12:13:48.715Z,2.30
2023-01-01T12:16:36.650Z,2.75
2023-01-01T12:19:13.396Z,2.90
2023-01-01T12:21:49.023Z,2.78
2023-01-01T12:24:18.760Z,2.80
2023-01-01T12:27:17.360Z,2.95
2023-01-01T12:30:13.732Z,2.90
2023-01-01T12:33:08.715Z,3.10
2023-01-01T12:35:43.955Z,3.22
2023-01-01T12:38:18.711Z,2.90
2023-01-01T12:41:09.247Z,3.35
2023-01-01T12:43:52.252Z,2.75
2023-01-01T12:46:42.929Z,3.10
2023-01-01T12:49:38.174Z,2.90
2023-01-01T12:52:38.612Z,2.97
2023-01-01T12:55:48.565Z,3.10
2023-01-01T12:58:35.079Z,3.05
2023-01-01T13:01:12.761Z,3.05
2023-01-01T13:03:49.028Z,3.30
2023-01-01T13:06:23.393Z,2.70
2023-01-01T13:08:59.713Z,2.67
2023-01-01T13:11:32.717Z,3.47
2023-01-01T13:13:59.271Z,3.13
2023-01-01T13:16:35.472Z,2.88
2023-01-01T13:19:03.001Z,3.10
2023-01-01T13:21:30.272Z,2.97
2023-01-01T13:24:02.661Z,3.00
2023-01-01T13:26:28.918Z,3.20
2023-01-01T13:28:58.040Z,3.17
2023-01-01T13:31:39.986Z,3.20
2023-01-01T13:36:51.472Z,3.97
2023-01-01T13:40:00.801Z,3.75
2023-01-01T13:43:02.300Z,3.13
2023-01-01T13:46:10.642Z,3.85
2023-01-01T13:48:29.603Z,3.65
2023-01-01T13:52:03.466Z,3.53
2023-01-01T13:54:57.347Z,3.83
2023-01-01T13:57:44.491Z,3.80
2023-01-01T14:00:33.129Z,3.83
2023-01-01T14:03:03.004Z,3.83
2023-01-01T14:05:44.840Z,3.75
2023-01-01T14:08:33.762Z,3.75
2023-01-01T14:11:02.355Z,3.83
2023-01-01T14:13:40.996Z,3.63
2023-01-01T14:16:13.697Z,3.50
2023-01-01T14:18:47.695Z,3.72
2023-01-01T14:21:17.375Z,3.65
2023-01-01T14:23:49.802Z,4.00
2023-01-01T14:26:19.741Z,3.72
2023-01-01T14:28:46.152Z,3.40
2023-01-01T14:31:19.432Z,4.40
2023-01-01T14:33:46.132Z,4.20
2023-01-01T14:36:23.091Z,4.97
2023-01-01T14:38:52.142Z,4.20
2023-01-01T14:44:02.784Z,3.75
2023-01-01T14:46:29.781Z,3.83
2023-01-01T14:48:58.816Z,3.95
2023-01-01T14:51:27.975Z,4.25
2023-01-01T14:56:30.425Z,4.03
2023-01-01T14:59:28.276Z,3.75
2023-01-01T15:02:14.230Z,4.00
2023-01-01T15:04:41.158Z,4.82
2023-01-01T15:07:20.783Z,4.45
2023-01-01T15:09:47.440Z,3.50
2023-01-01T15:12:15.661Z,4.70
2023-01-01T15:14:45.455Z,3.38
2023-01-01T15:17:14.477Z,4.40
2023-01-01T15:19:43.228Z,3.80
2023-01-01T15:22:26.743Z,3.75
2023-01-01T15:24:54.152Z,3.83
2023-01-01T15:27:29.553Z,3.63
2023-01-01T15:29:57.081Z,4.30
2023-01-01T15:32:33.116Z,3.50
2023-01-01T15:35:18.307Z,3.15
2023-01-01T15:37:51.150Z,3.63
2023-01-01T15:40:17.420Z,4.00
2023-01-01T15:42:51.615Z,3.65
2023-01-01T15:45:26.198Z,3.95
2023-01-01T15:47:55.219Z,4.40
2023-01-01T15:50:27.499Z,5.57
2023-01-01T15:52:58.073Z,5.20
2023-01-01T15:55:31.240Z,8.50
2023-01-01T15:57:58.661Z,6.18
2023-01-01T16:00:31.682Z,4.43
2023-01-01T16:03:17.258Z,5.18
2023-01-01T16:05:49.435Z,4.10
2023-01-01T16:08:17.266Z,5.28
2023-01-01T16:10:44.171Z,5.85
2023-01-01T16:13:10.501Z,5.47
2023-01-01T16:15:36.826Z,4.88
2023-01-01T16:18:03.254Z,4.65
2023-01-01T16:20:29.638Z,3.95
2023-01-01T16:22:55.990Z,4.65
2023-01-01T16:25:23.330Z,3.90
2023-01-01T16:27:49.792Z,4.20
2023-01-01T16:30:16.215Z,4.53
2023-01-01T16:32:43.173Z,4.57
2023-01-01T16:35:14.178Z,4.75
2023-01-01T16:37:40.526Z,4.72
2023-01-01T16:40:09.179Z,4.85
2023-01-01T16:42:35.491Z,4.60
2023-01-01T16:45:01.841Z,5.20
2023-01-01T16:47:28.181Z,6.03
2023-01-01T16:49:57.265Z,5.97
2023-01-01T16:54:50.176Z,7.68
2023-01-01T16:57:16.498Z,8.40
2023-01-01T16:59:42.836Z,7.00
2023-01-01T17:02:11.033Z,5.97
2023-01-01T17:04:37.557Z,6.13
2023-01-01T17:07:03.920Z,6.50
2023-01-01T17:09:30.234Z,5.20
2023-01-01T17:11:56.640Z,6.15
2023-01-01T17:14:22.987Z,6.50
2023-01-01T17:16:51.629Z,6.05
2023-01-01T17:19:18.157Z,5.35
2023-01-01T17:21:48.884Z,5.03
2023-01-01T17:24:16.983Z,5.22
2023-01-01T17:26:43.870Z,6.10
2023-01-01T17:29:10.735Z,5.63
2023-01-01T17:31:42.359Z,5.25
2023-01-01T17:34:13.811Z,5.43
2023-01-01T17:36:41.855Z,5.30
2023-01-01T17:39:10.860Z,5.43
2023-01-01T17:41:37.929Z,5.53
2023-01-01T17:44:04.425Z,5.57
2023-01-01T17:46:32.908Z,5.45
2023-01-01T17:49:00.371Z,5.03
2023-01-01T17:51:27.464Z,4.68
2023-01-01T17:53:55.228Z,5.43
2023-01-01T17:56:22.899Z,5.50
2023-01-01T17:58:52.317Z,5.35
2023-01-01T18:01:21.898Z,5.07
2023-01-01T18:03:53.848Z,5.05
2023-01-01T18:06:21.518Z,6.50
2023-01-01T18:08:48.733Z,5.57
2023-01-01T18:11:15.120Z,6.00
2023-01-01T18:13:41.408Z,5.80
2023-01-01T18:16:10.047Z,5.30
2023-01-01T18:18:37.915Z,6.68
2023-01-01T18:21:06.264Z,6.82
2023-01-01T18:23:37.435Z,7.25
2023-01-01T18:26:06.502Z,5.53
2023-01-01T18:28:33.301Z,5.75
2023-01-01T18:31:07.699Z,5.97
2023-01-01T18:33:34.904Z,5.95
2023-01-01T18:36:12.835Z,4.63
2023-01-01T18:38:42.435Z,5.28
2023-01-01T18:41:45.936Z,4.75
2023-01-01T18:44:19.097Z,4.65
2023-01-01T18:47:04.412Z,4.68
2023-01-01T18:49:31.849Z,5.25
2023-01-01T18:52:07.286Z,4.75
2023-01-01T18:54:34.484Z,4.05
2023-01-01T18:57:28.869Z,4.40
2023-01-01T19:02:28.757Z,4.45
2023-01-01T19:05:14.996Z,4.97
2023-01-01T19:07:41.840Z,3.97
2023-01-01T19:10:13.037Z,3.83
2023-01-01T19:12:39.885Z,4.57
2023-01-01T19:15:17.774Z,4.00
2023-01-01T19:17:45.828Z,4.10
2023-01-01T19:20:18.795Z,4.10
2023-01-01T19:22:45.709Z,4.20
2023-01-01T19:25:34.395Z,4.28
2023-01-01T19:28:13.027Z,4.03
2023-01-01T19:30:39.362Z,3.60
2023-01-01T19:33:05.694Z,4.13
2023-01-01T19:35:32.016Z,3.97
2023-01-01T19:37:58.374Z,4.28
2023-01-01T19:40:25.746Z,3.97
2023-01-01T19:42:52.015Z,4.05
2023-01-01T19:45:18.287Z,4.40
2023-01-01T19:47:45.359Z,3.80
2023-01-01T19:50:12.502Z,3.80
2023-01-01T19:52:39.575Z,3.72
2023-01-01T19:55:07.193Z,4.40
2023-01-01T19:57:33.932Z,3.80
2023-01-01T20:00:00.338Z,3.60
2023-01-01T20:02:45.491Z,4.22
2023-01-01T20:05:13.090Z,3.47
2023-01-01T20:07:39.473Z,3.70
2023-01-01T20:10:06.154Z,3.85
2023-01-01T20:12:32.432Z,3.83
2023-01-01T20:14:58.726Z,4.10
2023-01-01T20:17:25.049Z,3.67
2023-01-01T20:19:51.422Z,3.65
2023-01-01T20:22:17.766Z,4.20
2023-01-01T20:24:44.963Z,3.80
2023-01-01T20:27:13.009Z,3.95
2023-01-01T20:29:39.935Z,4.15
2023-01-01T20:32:12.369Z,4.00
2023-01-01T20:34:42.595Z,4.47
2023-01-01T20:37:27.633Z,4.05
2023-01-01T20:39:54.137Z,4.10
2023-01-01T20:42:20.755Z,3.55
2023-01-01T20:44:47.138Z,4.32
2023-01-01T20:47:14.306Z,4.35
2023-01-01T20:49:42.615Z,4.18
2023-01-01T20:52:09.258Z,4.15
2023-01-01T20:54:35.747Z,4.80
2023-01-01T20:57:02.136Z,4.28
2023-01-01T20:59:37.415Z,4.38
2023-01-01T21:02:10.179Z,4.20
2023-01-01T21:04:39.393Z,4.10
2023-01-01T21:07:07.844Z,4.53
2023-01-01T21:09:34.184Z,4.30
2023-01-01T21:12:01.591Z,4.40
2023-01-01T21:14:28.191Z,3.90
2023-01-01T21:16:54.626Z,4.35
2023-01-01T21:19:26.358Z,3.78
2023-01-01T21:21:55.928Z,4.00
2023-01-01T21:24:34.512Z,3.63
2023-01-01T21:27:14.701Z,3.90
2023-01-01T21:29:46.577Z,4.25
2023-01-01T21:32:24.946Z,4.13
2023-01-01T21:34:53.594Z,4.85
2023-01-01T21:37:48.085Z,3.85
2023-01-01T21:40:35.381Z,3.60
2023-01-01T21:43:01.671Z,4.32
2023-01-01T21:45:33.151Z,3.85
2023-01-01T21:48:09.825Z,3.58
2023-01-01T21:50:40.390Z,4.40
2023-01-01T21:53:14.087Z,4.15
2023-01-01T21:55:53.109Z,4.00
2023-01-01T21:58:48.446Z,3.85
2023-01-01T22:01:20.678Z,4.47
2023-01-01T22:04:16.628Z,3.45
2023-01-01T22:06:55.321Z,4.10
2023-01-01T22:09:44.304Z,3.45
2023-01-01T22:12:13.758Z,4.65
2023-01-01T22:14:45.260Z,4.15
2023-01-01T22:17:19.928Z,4.43
2023-01-01T22:19:47.111Z,3.70
2023-01-01T22:22:15.940Z,3.72
2023-01-01T22:24:52.130Z,3.88
2023-01-01T22:27:25.162Z,3.75
2023-01-01T22:29:51.870Z,3.72
2023-01-01T22:32:36.614Z,3.78
2023-01-01T22:35:18.586Z,4.25
2023-01-01T22:37:48.398Z,4.90
2023-01-01T22:40:33.221Z,3.70
2023-01-01T22:43:05.731Z,3.65
2023-01-01T22:45:38.435Z,4.28
2023-01-01T22:48:06.969Z,3.80
2023-01-01T22:50:34.441Z,4.25
2023-01-01T22:53:00.723Z,3.72
2023-01-01T22:55:27.011Z,4.30
2023-01-01T22:57:53.302Z,3.67
2023-01-01T23:00:19.640Z,3.90
2023-01-01T23:02:46.032Z,4.18
2023-01-01T23:05:12.631Z,4.05
2023-01-01T23:07:42.088Z,3.80
2023-01-01T23:10:13.725Z,3.95
2023-01-01T23:12:40.377Z,3.58
2023-01-01T23:15:25.910Z,3.67
2023-01-01T23:17:52.179Z,3.75
2023-01-01T23:20:18.640Z,4.22
2023-01-01T23:22:49.497Z,3.58
2023-01-01T23:25:18.268Z,3.70
2023-01-01T23:27:47.345Z,4.22
2023-01-01T23:30:14.096Z,4.05
2023-01-01T23:32:41.940Z,3.70
2023-01-01T23:35:09.750Z,3.78
2023-01-01T23:37:36.291Z,3.67
2023-01-01T23:40:02.612Z,3.88
2023-01-01T23:42:28.902Z,3.90
2023-01-01T23:44:55.224Z,3.83
2023-01-01T23:47:21.659Z,4.18
2023-01-01T23:49:48.062Z,3.85
2023-01-01T23:52:14.372Z,4.22
2023-01-01T23:54:40.786Z,4.18
2023-01-01T23:57:07.194Z,3.97
2023-01-01T23:59:33.482Z,3.88
